sensor_id;sensor_type;location;lat;lon;timestamp;pressure;altitude;pressure_sealevel;temperature;humidity
22862;BME280;11598;50.652;6.172;2023-04-24T00:02:10;95085.41;;;6.49;100.00
22862;BME280;11598;50.652;6.172;2023-04-24T00:12:11;95101.41;;;6.43;100.00
22862;BME280;11598;50.652;6.172;2023-04-24T00:22:11;95092.75;;;6.32;100.00
22862;BME280;11598;50.652;6.172;2023-04-24T00:32:13;95110.28;;;6.06;100.00
22862;BME280;11598;50.652;6.172;2023-04-24T00:42:14;95104.78;;;5.66;100.00
22862;BME280;11598;50.652;6.172;2023-04-24T00:52:14;95105.22;;;5.26;100.00
22862;BME280;11598;50.652;6.172;2023-04-24T01:02:17;95096.88;;;5.00;100.00
22862;BME280;11598;50.652;6.172;2023-04-24T01:12:19;95109.97;;;4.97;100.00
22862;BME280;11598;50.652;6.172;2023-04-24T01:22:19;95106.47;;;5.09;100.00
22862;BME280;11598;50.652;6.172;2023-04-24T01:32:20;95114.31;;;5.07;100.00
22862;BME280;11598;50.652;6.172;2023-04-24T01:42:21;95106.59;;;5.07;100.00
22862;BME280;11598;50.652;6.172;2023-04-24T01:52:22;95111.50;;;4.99;100.00
22862;BME280;11598;50.652;6.172;2023-04-24T02:02:23;95112.31;;;5.00;100.00
22862;BME280;11598;50.652;6.172;2023-04-24T02:12:30;95121.78;;;4.99;100.00
22862;BME280;11598;50.652;6.172;2023-04-24T02:22:30;95099.66;;;4.97;100.00
22862;BME280;11598;50.652;6.172;2023-04-24T02:32:30;95099.19;;;4.92;100.00
22862;BME280;11598;50.652;6.172;2023-04-24T02:42:31;95116.75;;;4.98;100.00
22862;BME280;11598;50.652;6.172;2023-04-24T02:52:31;95111.25;;;5.02;100.00
22862;BME280;11598;50.652;6.172;2023-04-24T03:02:31;95113.00;;;5.02;100.00
22862;BME280;11598;50.652;6.172;2023-04-24T03:12:32;95112.69;;;5.06;100.00
22862;BME280;11598;50.652;6.172;2023-04-24T03:22:32;95123.41;;;5.00;100.00
22862;BME280;11598;50.652;6.172;2023-04-24T03:32:33;95127.72;;;4.88;100.00
22862;BME280;11598;50.652;6.172;2023-04-24T03:42:34;95120.47;;;4.82;100.00
22862;BME280;11598;50.652;6.172;2023-04-24T03:52:34;95132.13;;;4.75;100.00
22862;BME280;11598;50.652;6.172;2023-04-24T04:02:35;95122.03;;;4.72;100.00
22862;BME280;11598;50.652;6.172;2023-04-24T04:12:35;95123.09;;;4.70;100.00
22862;BME280;11598;50.652;6.172;2023-04-24T04:22:36;95129.88;;;4.71;100.00
22862;BME280;11598;50.652;6.172;2023-04-24T04:32:36;95128.72;;;4.75;100.00
22862;BME280;11598;50.652;6.172;2023-04-24T04:42:37;95140.53;;;4.77;100.00
22862;BME280;11598;50.652;6.172;2023-04-24T04:52:40;95149.19;;;4.76;100.00
22862;BME280;11598;50.652;6.172;2023-04-24T05:02:40;95154.25;;;4.78;100.00
22862;BME280;11598;50.652;6.172;2023-04-24T05:12:41;95172.56;;;4.73;100.00
22862;BME280;11598;50.652;6.172;2023-04-24T05:22:41;95180.00;;;4.65;100.00
22862;BME280;11598;50.652;6.172;2023-04-24T05:32:41;95178.16;;;4.67;100.00
22862;BME280;11598;50.652;6.172;2023-04-24T05:42:42;95204.31;;;4.61;100.00
22862;BME280;11598;50.652;6.172;2023-04-24T05:52:42;95210.13;;;4.52;100.00
22862;BME280;11598;50.652;6.172;2023-04-24T06:02:42;95219.19;;;4.44;100.00
22862;BME280;11598;50.652;6.172;2023-04-24T06:12:43;95233.13;;;4.53;100.00
22862;BME280;11598;50.652;6.172;2023-04-24T06:22:43;95251.13;;;4.66;100.00
22862;BME280;11598;50.652;6.172;2023-04-24T06:32:44;95247.28;;;4.72;100.00
22862;BME280;11598;50.652;6.172;2023-04-24T06:42:44;95259.00;;;4.76;100.00
22862;BME280;11598;50.652;6.172;2023-04-24T06:52:44;95271.16;;;4.74;100.00
22862;BME280;11598;50.652;6.172;2023-04-24T07:02:45;95288.44;;;4.72;100.00
22862;BME280;11598;50.652;6.172;2023-04-24T07:12:46;95308.00;;;4.74;100.00
22862;BME280;11598;50.652;6.172;2023-04-24T07:22:47;95301.53;;;4.69;100.00
22862;BME280;11598;50.652;6.172;2023-04-24T07:32:49;95343.28;;;4.72;100.00
22862;BME280;11598;50.652;6.172;2023-04-24T07:42:49;95371.31;;;4.64;100.00
22862;BME280;11598;50.652;6.172;2023-04-24T07:52:49;95385.09;;;4.50;100.00
22862;BME280;11598;50.652;6.172;2023-04-24T08:02:50;95402.69;;;4.43;100.00
22862;BME280;11598;50.652;6.172;2023-04-24T08:12:50;95401.78;;;4.57;100.00
22862;BME280;11598;50.652;6.172;2023-04-24T08:22:51;95419.56;;;4.73;100.00
22862;BME280;11598;50.652;6.172;2023-04-24T08:32:51;95441.81;;;4.87;100.00
22862;BME280;11598;50.652;6.172;2023-04-24T08:42:54;95449.81;;;4.95;100.00
22862;BME280;11598;50.652;6.172;2023-04-24T08:52:55;95471.81;;;5.12;100.00
22862;BME280;11598;50.652;6.172;2023-04-24T09:02:57;95484.19;;;5.20;100.00
22862;BME280;11598;50.652;6.172;2023-04-24T09:12:58;95488.91;;;5.26;100.00
22862;BME280;11598;50.652;6.172;2023-04-24T09:23:01;95516.50;;;5.37;100.00
22862;BME280;11598;50.652;6.172;2023-04-24T09:33:13;95528.88;;;5.32;100.00
22862;BME280;11598;50.652;6.172;2023-04-24T09:43:14;95551.63;;;5.12;100.00
22862;BME280;11598;50.652;6.172;2023-04-24T09:53:15;95568.00;;;4.98;100.00
22862;BME280;11598;50.652;6.172;2023-04-24T10:03:17;95574.94;;;5.11;100.00
22862;BME280;11598;50.652;6.172;2023-04-24T10:13:18;95575.47;;;5.78;100.00
22862;BME280;11598;50.652;6.172;2023-04-24T10:23:19;95578.56;;;5.83;100.00
22862;BME280;11598;50.652;6.172;2023-04-24T10:33:19;95601.41;;;5.51;100.00
22862;BME280;11598;50.652;6.172;2023-04-24T10:43:20;95611.47;;;5.54;100.00
22862;BME280;11598;50.652;6.172;2023-04-24T10:53:27;95632.78;;;5.69;100.00
22862;BME280;11598;50.652;6.172;2023-04-24T11:03:30;95627.56;;;6.33;100.00
22862;BME280;11598;50.652;6.172;2023-04-24T11:23:56;95644.63;;;6.71;100.00
22862;BME280;11598;50.652;6.172;2023-04-24T11:33:57;95656.94;;;7.27;100.00
22862;BME280;11598;50.652;6.172;2023-04-24T11:43:57;95657.13;;;8.04;100.00
22862;BME280;11598;50.652;6.172;2023-04-24T11:53:58;95662.91;;;7.74;100.00
22862;BME280;11598;50.652;6.172;2023-04-24T12:04:01;95696.16;;;6.96;100.00
22862;BME280;11598;50.652;6.172;2023-04-24T12:14:11;95714.09;;;6.50;100.00
22862;BME280;11598;50.652;6.172;2023-04-24T12:24:12;95700.00;;;7.15;100.00
22862;BME280;11598;50.652;6.172;2023-04-24T12:34:20;95714.47;;;7.29;100.00
22862;BME280;11598;50.652;6.172;2023-04-24T12:44:31;95717.84;;;7.53;100.00
22862;BME280;11598;50.652;6.172;2023-04-24T12:54:32;95727.06;;;7.80;100.00
22862;BME280;11598;50.652;6.172;2023-04-24T13:04:33;95720.19;;;7.21;100.00
22862;BME280;11598;50.652;6.172;2023-04-24T13:14:34;95733.59;;;7.26;100.00
22862;BME280;11598;50.652;6.172;2023-04-24T13:24:35;95737.19;;;7.48;100.00
22862;BME280;11598;50.652;6.172;2023-04-24T13:34:35;95747.44;;;7.49;100.00
22862;BME280;11598;50.652;6.172;2023-04-24T13:44:37;95751.34;;;7.31;100.00
22862;BME280;11598;50.652;6.172;2023-04-24T13:54:37;95743.34;;;7.58;100.00
22862;BME280;11598;50.652;6.172;2023-04-24T14:04:37;95732.75;;;7.50;100.00
22862;BME280;11598;50.652;6.172;2023-04-24T14:14:38;95735.69;;;7.56;100.00
22862;BME280;11598;50.652;6.172;2023-04-24T14:24:38;95708.38;;;7.99;100.00
22862;BME280;11598;50.652;6.172;2023-04-24T14:34:38;95717.66;;;8.01;100.00
22862;BME280;11598;50.652;6.172;2023-04-24T14:44:39;95714.97;;;8.03;100.00
22862;BME280;11598;50.652;6.172;2023-04-24T14:54:39;95727.94;;;8.14;100.00
22862;BME280;11598;50.652;6.172;2023-04-24T15:04:40;95731.69;;;8.21;98.59
22862;BME280;11598;50.652;6.172;2023-04-24T15:14:40;95742.25;;;7.96;96.37
22862;BME280;11598;50.652;6.172;2023-04-24T15:24:40;95751.69;;;7.50;96.40
22862;BME280;11598;50.652;6.172;2023-04-24T15:34:41;95754.94;;;7.17;96.49
22862;BME280;11598;50.652;6.172;2023-04-24T15:44:41;95767.19;;;7.02;97.01
22862;BME280;11598;50.652;6.172;2023-04-24T15:54:41;95761.25;;;6.89;97.99
22862;BME280;11598;50.652;6.172;2023-04-24T16:04:42;95752.03;;;6.97;99.81
22862;BME280;11598;50.652;6.172;2023-04-24T16:14:42;95754.91;;;7.06;100.00
22862;BME280;11598;50.652;6.172;2023-04-24T16:24:42;95752.13;;;6.96;100.00
22862;BME280;11598;50.652;6.172;2023-04-24T16:34:43;95764.59;;;7.02;100.00
22862;BME280;11598;50.652;6.172;2023-04-24T16:44:44;95768.84;;;7.03;100.00
22862;BME280;11598;50.652;6.172;2023-04-24T16:54:44;95769.06;;;7.00;100.00
22862;BME280;11598;50.652;6.172;2023-04-24T17:04:45;95768.66;;;6.93;100.00
22862;BME280;11598;50.652;6.172;2023-04-24T17:14:47;95783.16;;;6.83;100.00
22862;BME280;11598;50.652;6.172;2023-04-24T17:24:47;95782.59;;;6.67;100.00
22862;BME280;11598;50.652;6.172;2023-04-24T17:34:47;95794.31;;;6.47;100.00
22862;BME280;11598;50.652;6.172;2023-04-24T17:44:48;95788.84;;;6.26;100.00
22862;BME280;11598;50.652;6.172;2023-04-24T17:54:48;95790.38;;;6.16;100.00
22862;BME280;11598;50.652;6.172;2023-04-24T18:04:48;95791.41;;;6.13;100.00
22862;BME280;11598;50.652;6.172;2023-04-24T18:14:49;95792.66;;;6.07;100.00
22862;BME280;11598;50.652;6.172;2023-04-24T18:24:49;95793.78;;;6.03;100.00
22862;BME280;11598;50.652;6.172;2023-04-24T18:34:49;95813.69;;;6.01;100.00
22862;BME280;11598;50.652;6.172;2023-04-24T18:44:50;95813.19;;;5.96;100.00
22862;BME280;11598;50.652;6.172;2023-04-24T18:54:51;95824.69;;;5.90;100.00
22862;BME280;11598;50.652;6.172;2023-04-24T19:04:51;95837.69;;;5.89;100.00
22862;BME280;11598;50.652;6.172;2023-04-24T19:14:51;95858.59;;;5.84;100.00
22862;BME280;11598;50.652;6.172;2023-04-24T19:24:54;95863.97;;;5.81;100.00
22862;BME280;11598;50.652;6.172;2023-04-24T19:34:57;95867.75;;;5.76;100.00
22862;BME280;11598;50.652;6.172;2023-04-24T19:44:58;95873.63;;;5.65;100.00
22862;BME280;11598;50.652;6.172;2023-04-24T19:54:59;95875.97;;;5.55;100.00
22862;BME280;11598;50.652;6.172;2023-04-24T20:04:59;95878.38;;;5.44;100.00
22862;BME280;11598;50.652;6.172;2023-04-24T20:15:02;95882.34;;;5.35;100.00
22862;BME280;11598;50.652;6.172;2023-04-24T20:25:05;95879.72;;;5.22;100.00
22862;BME280;11598;50.652;6.172;2023-04-24T20:35:05;95878.84;;;5.09;100.00
22862;BME280;11598;50.652;6.172;2023-04-24T20:45:06;95881.88;;;5.01;100.00
22862;BME280;11598;50.652;6.172;2023-04-24T20:55:07;95889.06;;;4.96;100.00
22862;BME280;11598;50.652;6.172;2023-04-24T21:05:08;95888.41;;;4.93;100.00
22862;BME280;11598;50.652;6.172;2023-04-24T21:15:09;95878.75;;;4.82;100.00
22862;BME280;11598;50.652;6.172;2023-04-24T21:25:10;95880.25;;;4.72;100.00
22862;BME280;11598;50.652;6.172;2023-04-24T21:35:10;95889.06;;;4.68;100.00
22862;BME280;11598;50.652;6.172;2023-04-24T21:45:10;95871.78;;;4.70;100.00
22862;BME280;11598;50.652;6.172;2023-04-24T21:55:11;95861.59;;;4.68;100.00
22862;BME280;11598;50.652;6.172;2023-04-24T22:05:11;95867.66;;;4.67;100.00
22862;BME280;11598;50.652;6.172;2023-04-24T22:15:14;95869.59;;;4.63;100.00
22862;BME280;11598;50.652;6.172;2023-04-24T22:25:16;95863.19;;;4.56;100.00
22862;BME280;11598;50.652;6.172;2023-04-24T22:35:17;95877.13;;;4.52;100.00
22862;BME280;11598;50.652;6.172;2023-04-24T22:45:19;95881.72;;;4.47;100.00
22862;BME280;11598;50.652;6.172;2023-04-24T22:55:22;95884.47;;;4.44;100.00
22862;BME280;11598;50.652;6.172;2023-04-24T23:05:23;95877.75;;;4.41;100.00
22862;BME280;11598;50.652;6.172;2023-04-24T23:15:24;95888.78;;;4.43;100.00
22862;BME280;11598;50.652;6.172;2023-04-24T23:25:24;95880.50;;;4.38;100.00
22862;BME280;11598;50.652;6.172;2023-04-24T23:35:25;95875.66;;;4.34;100.00
22862;BME280;11598;50.652;6.172;2023-04-24T23:45:26;95875.09;;;4.29;100.00
22862;BME280;11598;50.652;6.172;2023-04-24T23:55:26;95863.25;;;4.26;100.00
